Time;durP1;ratioP1;P1;durP2;ratioP2;P2;SDS_P1;SDS_P2;PMS_P1;PMS_P2;Temp;Humidity;BMP_temperature;BMP_pressure;BME280_temperature;BME280_humidity;BME280_pressure;Samples;Min_cycle;Max_cycle;Signal;HPM_P1;HPM_P2
2021/07/31 00:02:10;;;;;;;11.43;10.33;;;;;;;19.69;71.64;100052.72;5057708;28;20177;-66
2021/07/31 00:04:35;;;;;;;11.10;10.20;;;;;;;19.25;72.42;100049.16;5057936;28;20531;-66
2021/07/31 00:07:00;;;;;;;11.50;10.40;;;;;;;19.48;71.97;100043.88;5057805;28;20166;-66
2021/07/31 00:09:26;;;;;;;11.23;10.23;;;;;;;19.12;72.21;100044.31;5057893;28;20223;-65
2021/07/31 00:11:51;;;;;;;9.93;8.93;;;;;;;19.12;72.30;100041.69;5057927;28;20193;-65
2021/07/31 00:14:17;;;;;;;10.40;9.60;;;;;;;19.30;71.50;100031.34;5057545;28;20218;-65
2021/07/31 00:16:43;;;;;;;10.50;9.70;;;;;;;19.17;71.87;100025.66;5057750;28;20216;-65
2021/07/31 00:19:08;;;;;;;10.87;9.87;;;;;;;19.50;71.17;100025.28;5058250;28;20411;-65
2021/07/31 00:21:33;;;;;;;11.40;9.67;;;;;;;19.14;72.22;100023.13;5060041;28;20174;-66
2021/07/31 00:23:59;;;;;;;10.53;9.47;;;;;;;19.42;70.40;100028.22;5061276;28;20308;-65
2021/07/31 00:26:24;;;;;;;10.67;9.70;;;;;;;19.43;70.25;100034.34;5061654;28;20192;-66
2021/07/31 00:28:49;;;;;;;11.03;10.03;;;;;;;19.32;69.73;100027.72;5061473;28;20176;-65
2021/07/31 00:31:15;;;;;;;9.30;8.47;;;;;;;19.17;69.32;100015.97;5061860;28;20247;-65
2021/07/31 00:33:40;;;;;;;10.27;9.37;;;;;;;19.37;69.26;100038.09;5062131;28;20177;-65
2021/07/31 00:36:05;;;;;;;9.30;8.60;;;;;;;19.74;66.92;100034.06;5061255;28;20166;-65
2021/07/31 00:38:31;;;;;;;8.17;7.50;;;;;;;19.16;68.13;100023.94;5061168;28;20174;-64
2021/07/31 00:40:56;;;;;;;7.33;6.80;;;;;;;19.59;66.68;100027.59;5061517;28;20177;-65
2021/07/31 00:43:21;;;;;;;7.83;7.23;;;;;;;19.07;67.98;100027.78;5061075;28;20193;-65
2021/07/31 00:45:47;;;;;;;7.27;6.67;;;;;;;18.87;67.48;100025.81;5061100;28;20161;-65
2021/07/31 00:48:12;;;;;;;8.13;7.33;;;;;;;19.19;67.18;100034.38;5060687;28;20173;-65
2021/07/31 00:50:38;;;;;;;7.30;6.60;;;;;;;19.66;64.94;100026.41;5060900;28;20197;-65
2021/07/31 00:53:03;;;;;;;6.97;6.30;;;;;;;19.62;65.07;100023.94;5061003;28;20188;-65
2021/07/31 00:55:29;;;;;;;6.77;6.17;;;;;;;19.50;64.98;100023.50;5061203;28;20172;-66
2021/07/31 00:57:56;;;;;;;6.30;5.77;;;;;;;19.44;65.54;100023.72;5060965;28;20170;-66
2021/07/31 01:00:21;;;;;;;8.43;7.53;;;;;;;19.50;65.13;100020.00;5060886;28;20170;-64
2021/07/31 01:02:47;;;;;;;6.90;6.30;;;;;;;19.71;64.53;100015.63;5061348;28;20806;-66
2021/07/31 01:05:12;;;;;;;8.37;6.50;;;;;;;19.38;65.61;100021.34;5060739;28;20256;-66
2021/07/31 01:07:38;;;;;;;7.87;7.10;;;;;;;19.43;65.32;100018.50;5060668;28;20162;-65
2021/07/31 01:10:04;;;;;;;7.23;6.53;;;;;;;19.57;65.35;100020.63;5060491;28;20173;-66
2021/07/31 01:12:31;;;;;;;11.07;7.90;;;;;;;18.95;67.28;100017.66;5060756;28;20169;-65
2021/07/31 01:14:56;;;;;;;8.97;8.07;;;;;;;19.10;67.40;100016.22;5059931;28;20400;-65
2021/07/31 01:17:21;;;;;;;9.67;8.67;;;;;;;19.12;67.73;100019.66;5061090;28;20433;-65
2021/07/31 01:19:46;;;;;;;10.40;9.50;;;;;;;19.17;68.03;100015.97;5060673;28;20562;-66
2021/07/31 01:22:12;;;;;;;10.00;9.00;;;;;;;19.13;68.39;100010.81;5060364;28;20233;-65
2021/07/31 01:24:37;;;;;;;10.53;9.40;;;;;;;19.59;67.38;100013.47;5060661;28;20240;-65
2021/07/31 01:27:03;;;;;;;12.40;11.20;;;;;;;18.98;69.89;100006.97;5060534;28;20166;-65
2021/07/31 01:29:28;;;;;;;12.47;11.37;;;;;;;19.21;69.34;100007.91;5059801;28;20256;-65
2021/07/31 01:31:54;;;;;;;13.17;11.87;;;;;;;19.30;69.40;100002.28;5059924;28;20276;-65
2021/07/31 01:34:19;;;;;;;13.60;12.30;;;;;;;18.97;70.33;99997.31;5060047;28;20193;-65
2021/07/31 01:36:44;;;;;;;14.60;12.97;;;;;;;18.99;71.02;100006.91;5060400;28;20181;-65
2021/07/31 01:39:10;;;;;;;13.37;12.27;;;;;;;19.20;70.00;100014.97;5060563;28;20170;-65
2021/07/31 01:41:35;;;;;;;13.37;12.17;;;;;;;18.50;72.52;100011.31;5060053;28;20551;-65
2021/07/31 01:44:00;;;;;;;12.07;10.83;;;;;;;18.78;71.63;100021.75;5059985;28;20173;-64
2021/07/31 01:46:26;;;;;;;12.47;11.07;;;;;;;18.42;73.23;100027.41;5059931;28;20178;-64
2021/07/31 01:48:51;;;;;;;13.97;9.90;;;;;;;18.94;70.42;100023.84;5060054;28;20241;-65
2021/07/31 01:51:16;;;;;;;10.00;9.20;;;;;;;18.52;71.73;100020.91;5059756;28;20201;-65
2021/07/31 01:53:42;;;;;;;10.13;9.23;;;;;;;18.59;70.72;100020.66;5060052;28;20208;-64
2021/07/31 01:56:07;;;;;;;9.07;8.27;;;;;;;18.65;69.90;100020.47;5059856;28;20174;-65
2021/07/31 01:58:33;;;;;;;8.63;7.83;;;;;;;18.69;69.76;100019.44;5059823;28;20176;-65
2021/07/31 02:00:59;;;;;;;8.73;8.03;;;;;;;18.54;69.90;100012.03;5060122;28;20220;-65
2021/07/31 02:03:25;;;;;;;8.70;7.80;;;;;;;18.32;69.68;100020.69;5059641;28;20176;-65
2021/07/31 02:05:50;;;;;;;7.90;7.20;;;;;;;18.55;68.23;100013.78;5059732;28;20181;-65
2021/07/31 02:08:15;;;;;;;8.17;7.03;;;;;;;18.09;69.60;100014.44;5060242;28;20433;-65
2021/07/31 02:10:41;;;;;;;7.00;6.40;;;;;;;18.54;67.63;100009.41;5059461;28;20209;-66
2021/07/31 02:13:06;;;;;;;7.10;6.03;;;;;;;18.13;68.54;100013.44;5059562;28;20192;-64
2021/07/31 02:15:32;;;;;;;7.40;6.63;;;;;;;18.42;67.36;100006.28;5060148;28;20170;-66
2021/07/31 02:17:57;;;;;;;6.77;6.13;;;;;;;18.03;68.38;100006.72;5059576;28;20590;-65
2021/07/31 02:20:23;;;;;;;7.10;6.40;;;;;;;17.98;68.44;99996.34;5059470;28;20165;-66
2021/07/31 02:22:49;;;;;;;7.23;6.53;;;;;;;18.07;68.09;100002.22;5059133;28;20222;-64
2021/07/31 02:25:14;;;;;;;6.20;5.63;;;;;;;18.01;68.29;100003.28;5059341;28;20201;-64
2021/07/31 02:27:40;;;;;;;5.90;5.40;;;;;;;17.87;68.60;100001.03;5059458;28;20422;-66
2021/07/31 02:30:05;;;;;;;6.70;6.00;;;;;;;18.09;67.26;100003.00;5059268;28;20169;-65
2021/07/31 02:32:30;;;;;;;6.03;5.53;;;;;;;18.19;67.34;99991.25;5059206;28;20166;-65
2021/07/31 02:34:56;;;;;;;6.07;5.47;;;;;;;18.14;67.00;100003.72;5060248;28;20177;-65
2021/07/31 02:37:21;;;;;;;5.63;5.13;;;;;;;17.84;67.82;99995.88;5059784;28;20231;-65
2021/07/31 02:39:46;;;;;;;6.50;5.63;;;;;;;18.03;67.57;99987.41;5059017;28;20177;-65
2021/07/31 02:42:12;;;;;;;5.93;4.97;;;;;;;17.74;67.57;99984.78;5059540;28;20198;-65
2021/07/31 02:44:37;;;;;;;5.43;4.93;;;;;;;17.95;66.75;99987.66;5058561;28;20174;-66
2021/07/31 02:47:03;;;;;;;6.03;5.30;;;;;;;18.32;66.08;99986.41;5058943;28;20510;-66
2021/07/31 02:49:28;;;;;;;6.57;5.43;;;;;;;18.08;66.00;99991.63;5059583;28;20169;-65
2021/07/31 02:51:53;;;;;;;5.93;5.40;;;;;;;18.29;65.01;99989.16;5058850;28;20598;-65
2021/07/31 02:54:19;;;;;;;6.83;5.33;;;;;;;18.48;63.84;99992.00;5058620;28;20181;-66
2021/07/31 02:56:44;;;;;;;5.23;4.73;;;;;;;18.40;63.83;99983.50;5059403;28;20227;-66
2021/07/31 02:59:09;;;;;;;5.20;4.70;;;;;;;18.08;64.47;99981.06;5058876;28;20192;-65
2021/07/31 03:01:35;;;;;;;5.57;5.07;;;;;;;18.56;63.23;99982.03;5058730;28;20180;-65
2021/07/31 03:04:00;;;;;;;5.27;4.77;;;;;;;18.34;63.88;99979.31;5058929;28;20169;-65
2021/07/31 03:06:26;;;;;;;5.53;5.03;;;;;;;18.46;63.41;99968.31;5058766;28;20539;-65
2021/07/31 03:08:51;;;;;;;5.20;4.70;;;;;;;18.27;63.74;99967.25;5058563;28;20261;-65
2021/07/31 03:11:16;;;;;;;5.90;4.80;;;;;;;18.26;64.62;99962.88;5059105;28;20201;-65
2021/07/31 03:13:41;;;;;;;6.47;5.07;;;;;;;18.39;63.90;99969.47;5058416;28;20177;-65
2021/07/31 03:16:07;;;;;;;5.33;4.83;;;;;;;18.26;64.53;99960.25;5058600;28;20175;-66
2021/07/31 03:18:32;;;;;;;7.50;4.70;;;;;;;18.45;63.71;99963.94;5059003;28;20204;-64
2021/07/31 03:20:57;;;;;;;5.00;4.50;;;;;;;18.64;63.13;99965.94;5058313;28;20464;-65
2021/07/31 03:23:23;;;;;;;7.63;5.40;;;;;;;18.36;64.31;99964.28;5057845;28;20242;-65
2021/07/31 03:25:49;;;;;;;5.50;4.90;;;;;;;18.30;64.08;99960.06;5058653;28;20177;-65
2021/07/31 03:28:14;;;;;;;5.40;4.90;;;;;;;18.44;64.22;99953.44;5058318;28;20169;-66
2021/07/31 03:30:45;;;;;;;8.03;5.20;;;;;;;18.06;65.68;99948.59;5058157;28;20579;-65
2021/07/31 03:33:11;;;;;;;5.83;5.33;;;;;;;18.10;65.38;99949.34;5058528;28;20212;-65
2021/07/31 03:35:40;;;;;;;8.10;5.40;;;;;;;18.44;64.07;99948.16;5058241;28;20416;-65
2021/07/31 03:38:07;;;;;;;5.40;4.50;;;;;;;18.63;63.49;99943.97;5057917;28;20398;-66
2021/07/31 03:40:32;;;;;;;9.50;5.40;;;;;;;18.49;63.69;99940.94;5058465;28;20786;-65
2021/07/31 03:42:58;;;;;;;10.20;5.23;;;;;;;18.83;62.62;99937.94;5057992;28;20424;-65
2021/07/31 03:45:23;;;;;;;6.80;4.80;;;;;;;18.47;63.28;99940.16;5058147;28;20180;-64
2021/07/31 03:47:49;;;;;;;6.33;5.07;;;;;;;18.23;63.65;99940.09;5058487;28;20172;-64
2021/07/31 03:50:14;;;;;;;5.77;4.80;;;;;;;18.51;63.07;99932.06;5057881;28;20464;-66
2021/07/31 03:52:39;;;;;;;7.20;4.50;;;;;;;18.82;62.23;99938.84;5057855;28;20185;-66
2021/07/31 03:55:06;;;;;;;5.83;5.30;;;;;;;18.85;62.11;99937.88;5058167;28;20244;-64
2021/07/31 03:57:32;;;;;;;5.60;4.97;;;;;;;18.41;63.39;99930.66;5057869;28;20184;-65
2021/07/31 03:59:57;;;;;;;5.00;4.50;;;;;;;18.20;63.59;99932.31;5057963;28;20683;-65
2021/07/31 04:02:22;;;;;;;5.00;4.60;;;;;;;18.61;62.10;99934.38;5058404;28;20170;-65
2021/07/31 04:04:47;;;;;;;9.40;4.83;;;;;;;18.49;62.53;99931.25;5057656;28;20177;-65
2021/07/31 04:07:13;;;;;;;5.30;4.73;;;;;;;18.35;63.58;99933.53;5057764;28;20174;-66
2021/07/31 04:09:38;;;;;;;5.30;4.70;;;;;;;18.07;63.77;99928.38;5058389;28;20252;-65
2021/07/31 04:12:04;;;;;;;5.60;4.73;;;;;;;18.49;62.30;99933.03;5057782;28;20213;-65
2021/07/31 04:14:30;;;;;;;6.30;4.80;;;;;;;17.96;63.85;99934.84;5057660;28;20177;-65
2021/07/31 04:16:55;;;;;;;5.70;4.67;;;;;;;18.49;61.88;99925.97;5058172;28;20173;-65
2021/07/31 04:19:21;;;;;;;8.50;4.47;;;;;;;18.74;61.11;99922.44;5057766;28;20514;-65
2021/07/31 04:21:46;;;;;;;5.20;4.60;;;;;;;18.66;61.60;99932.44;5057391;28;20174;-65
2021/07/31 04:24:12;;;;;;;5.90;5.13;;;;;;;18.44;62.45;99932.34;5057892;28;20181;-65
2021/07/31 04:26:37;;;;;;;4.80;4.40;;;;;;;18.96;60.74;99924.31;5057718;28;20192;-66
2021/07/31 04:29:02;;;;;;;6.43;4.47;;;;;;;18.48;61.74;99928.66;5057647;28;20181;-66
2021/07/31 04:31:27;;;;;;;6.90;4.30;;;;;;;18.77;61.25;99924.13;5058167;28;20251;-66
2021/07/31 04:33:56;;;;;;;6.63;4.53;;;;;;;18.73;60.97;99922.50;5057489;28;20247;-66
2021/07/31 04:36:21;;;;;;;6.43;4.60;;;;;;;19.19;59.52;99924.25;5057658;28;20243;-66
2021/07/31 04:38:46;;;;;;;6.50;4.70;;;;;;;18.62;61.39;99920.25;5059076;28;20633;-66
2021/07/31 04:41:12;;;;;;;5.40;4.60;;;;;;;18.29;61.60;99924.06;5057792;28;20205;-65
2021/07/31 04:43:37;;;;;;;6.07;5.23;;;;;;;18.58;60.53;99919.50;5057470;28;20169;-66
2021/07/31 04:46:02;;;;;;;5.40;4.90;;;;;;;18.82;60.24;99919.50;5058016;28;20550;-65
2021/07/31 04:48:28;;;;;;;7.10;4.60;;;;;;;18.57;60.44;99911.66;5057389;28;20457;-65
2021/07/31 04:50:58;;;;;;;6.23;4.57;;;;;;;18.65;60.37;99909.59;5057304;28;20212;-65
2021/07/31 04:53:23;;;;;;;6.50;4.97;;;;;;;18.98;59.88;99917.16;5056875;28;20182;-65
2021/07/31 04:55:49;;;;;;;4.97;4.37;;;;;;;18.66;60.76;99906.88;5057473;28;20419;-65
2021/07/31 04:58:14;;;;;;;6.80;5.00;;;;;;;19.00;59.94;99907.41;5057443;28;20180;-66
2021/07/31 05:00:40;;;;;;;5.60;4.70;;;;;;;18.81;60.51;99908.09;5057758;28;20170;-66
2021/07/31 05:03:05;;;;;;;5.40;4.90;;;;;;;19.07;59.50;99908.91;5057219;28;20227;-66
2021/07/31 05:05:33;;;;;;;6.07;5.00;;;;;;;18.77;60.28;99903.84;5057294;28;20570;-65
2021/07/31 05:07:58;;;;;;;9.27;4.60;;;;;;;18.26;61.16;99908.31;5060680;28;20173;-66
2021/07/31 05:10:23;;;;;;;7.57;4.37;;;;;;;18.97;59.38;99907.50;5060688;28;20448;-66
2021/07/31 05:12:49;;;;;;;4.93;4.40;;;;;;;18.51;60.71;99912.75;5060615;28;20177;-66
2021/07/31 05:15:14;;;;;;;5.13;4.33;;;;;;;18.68;59.48;99906.81;5061286;28;20239;-66
2021/07/31 05:17:39;;;;;;;6.20;4.37;;;;;;;19.27;58.37;99915.19;5060754;28;20181;-65
2021/07/31 05:20:05;;;;;;;11.07;4.73;;;;;;;18.71;60.55;99913.78;5060687;28;20473;-65
2021/07/31 05:22:30;;;;;;;8.00;4.77;;;;;;;18.64;60.64;99906.06;5060726;28;20275;-66
2021/07/31 05:24:55;;;;;;;6.70;5.33;;;;;;;19.05;59.17;99902.81;5060587;28;20193;-66
2021/07/31 05:27:22;;;;;;;8.03;4.57;;;;;;;18.87;59.61;99903.50;5060659;28;20185;-65
2021/07/31 05:29:48;;;;;;;5.17;4.67;;;;;;;18.60;60.06;99903.59;5060595;28;20181;-65
2021/07/31 05:32:13;;;;;;;6.73;5.30;;;;;;;18.45;59.84;99907.66;5060500;28;20739;-65
2021/07/31 05:34:38;;;;;;;6.80;5.23;;;;;;;18.28;59.89;99906.50;5060555;28;20177;-65
2021/07/31 05:37:03;;;;;;;7.33;5.60;;;;;;;18.82;59.07;99906.28;5060304;28;20228;-65
2021/07/31 05:39:33;;;;;;;6.83;4.60;;;;;;;18.91;58.97;99894.56;5060405;28;20173;-65
2021/07/31 05:42:02;;;;;;;7.90;4.80;;;;;;;19.04;58.10;99901.09;5060701;28;20191;-66
2021/07/31 05:44:27;;;;;;;5.07;4.53;;;;;;;18.80;58.62;99903.72;5060057;28;20843;-65
2021/07/31 05:46:52;;;;;;;8.17;4.30;;;;;;;18.72;59.05;99904.94;5060230;28;20408;-65
2021/07/31 05:49:18;;;;;;;7.63;4.40;;;;;;;18.37;59.69;99915.00;5060652;28;20173;-65
2021/07/31 05:51:43;;;;;;;6.93;4.80;;;;;;;18.76;59.22;99906.53;5059913;28;20278;-65
2021/07/31 05:54:08;;;;;;;6.13;3.77;;;;;;;18.14;60.37;99900.84;5059817;28;20224;-65
2021/07/31 05:56:33;;;;;;;11.57;4.40;;;;;;;18.50;59.96;99911.88;5060276;28;20176;-65
2021/07/31 05:58:59;;;;;;;4.93;4.10;;;;;;;18.96;58.42;99896.09;5060086;28;20182;-66
2021/07/31 06:01:24;;;;;;;6.97;4.70;;;;;;;18.98;58.21;99909.25;5059893;28;20169;-65
2021/07/31 06:03:49;;;;;;;6.20;4.37;;;;;;;18.40;59.25;99894.66;5060092;28;20514;-65
2021/07/31 06:06:15;;;;;;;5.13;4.30;;;;;;;18.37;59.99;99904.47;5059832;28;20415;-65
2021/07/31 06:08:40;;;;;;;6.13;4.30;;;;;;;19.01;58.20;99906.47;5059828;28;20180;-65
2021/07/31 06:11:06;;;;;;;10.23;5.70;;;;;;;19.31;56.97;99895.66;5060011;28;20193;-65
2021/07/31 06:13:32;;;;;;;6.47;4.80;;;;;;;19.24;56.67;99902.97;5059687;28;20178;-65
2021/07/31 06:15:57;;;;;;;4.73;4.10;;;;;;;19.04;57.44;99901.09;5059711;28;20192;-65
2021/07/31 06:18:23;;;;;;;7.07;4.50;;;;;;;18.54;58.70;99902.06;5059536;28;20571;-65
2021/07/31 06:20:49;;;;;;;5.10;4.37;;;;;;;19.51;56.29;99903.63;5059761;28;20178;-65
2021/07/31 06:23:14;;;;;;;7.50;4.73;;;;;;;19.15;56.76;99893.59;5059177;28;20736;-65
2021/07/31 06:25:39;;;;;;;10.23;4.93;;;;;;;19.50;56.01;99908.97;5059697;28;20561;-65
2021/07/31 06:28:04;;;;;;;5.87;4.47;;;;;;;18.87;57.60;99890.28;5059374;28;20170;-65
2021/07/31 06:30:30;;;;;;;5.30;4.33;;;;;;;18.94;57.77;99892.69;5059206;28;20217;-65
2021/07/31 06:32:55;;;;;;;6.30;4.73;;;;;;;19.33;56.66;99897.28;5059612;28;20170;-65
2021/07/31 06:35:22;;;;;;;6.30;4.70;;;;;;;19.30;56.83;99886.84;5059229;28;20209;-65
2021/07/31 06:37:48;;;;;;;10.90;5.40;;;;;;;18.99;57.19;99892.47;5059485;28;20434;-65
2021/07/31 06:40:13;;;;;;;6.70;5.47;;;;;;;19.40;55.71;99891.75;5059769;28;20487;-66
2021/07/31 06:42:38;;;;;;;8.00;4.77;;;;;;;19.44;56.05;99896.84;5058946;28;20212;-65
2021/07/31 06:45:04;;;;;;;9.77;5.87;;;;;;;19.25;56.58;99880.88;5058739;28;20468;-65
2021/07/31 06:47:29;;;;;;;5.43;4.37;;;;;;;19.05;56.82;99886.97;5059324;28;20276;-65
2021/07/31 06:49:55;;;;;;;7.20;4.90;;;;;;;19.77;55.30;99882.28;5058904;28;20177;-65
2021/07/31 06:52:20;;;;;;;7.40;5.30;;;;;;;20.50;53.26;99880.03;5058756;28;20327;-65
2021/07/31 06:54:45;;;;;;;5.50;4.10;;;;;;;21.15;51.05;99882.38;5059153;28;20224;-65
2021/07/31 06:57:11;;;;;;;6.43;4.63;;;;;;;20.69;51.94;99880.94;5058801;28;20169;-65
2021/07/31 06:59:37;;;;;;;7.13;4.37;;;;;;;19.49;54.66;99881.66;5058631;28;20174;-65
2021/07/31 07:02:02;;;;;;;6.10;4.67;;;;;;;19.90;54.01;99901.19;5059141;28;20208;-67
2021/07/31 07:04:28;;;;;;;4.83;3.90;;;;;;;19.76;54.91;99885.88;5058506;28;20420;-65
2021/07/31 07:06:53;;;;;;;5.03;4.53;;;;;;;20.10;53.84;99892.41;5058669;28;20555;-65
2021/07/31 07:09:18;;;;;;;8.17;5.03;;;;;;;19.33;55.94;99880.56;5058001;28;20173;-65
2021/07/31 07:11:44;;;;;;;8.07;4.90;;;;;;;19.53;55.72;99888.53;5058531;28;20205;-65
2021/07/31 07:14:09;;;;;;;5.67;4.13;;;;;;;20.15;53.99;99877.19;5058304;28;20544;-65
2021/07/31 07:16:35;;;;;;;6.90;4.60;;;;;;;20.19;53.81;99871.69;5058992;28;20228;-66
2021/07/31 07:19:00;;;;;;;8.17;4.33;;;;;;;20.63;52.33;99870.59;5058311;28;20184;-66
2021/07/31 07:21:25;;;;;;;6.27;4.63;;;;;;;19.90;54.52;99872.09;5058408;28;20208;-66
2021/07/31 07:23:51;;;;;;;7.00;5.80;;;;;;;21.72;50.35;99868.09;5058056;28;20564;-65
2021/07/31 07:26:16;;;;;;;7.13;4.63;;;;;;;20.68;51.74;99863.31;5058103;28;20189;-70
2021/07/31 07:28:42;;;;;;;5.03;4.53;;;;;;;20.77;51.96;99863.81;5058695;28;20608;-64
2021/07/31 07:31:10;;;;;;;6.70;4.27;;;;;;;21.11;51.37;99856.94;5057227;28;20259;-64
2021/07/31 07:33:36;;;;;;;5.50;5.00;;;;;;;19.84;54.98;99870.56;5058097;28;20478;-64
2021/07/31 07:36:01;;;;;;;9.40;4.77;;;;;;;19.51;55.85;99874.53;5058628;28;20404;-64
2021/07/31 07:38:27;;;;;;;5.13;4.63;;;;;;;19.33;56.86;99868.22;5058123;28;20169;-64
2021/07/31 07:40:52;;;;;;;7.67;4.60;;;;;;;19.96;55.14;99870.03;5057921;28;20173;-65
2021/07/31 07:43:17;;;;;;;7.63;4.90;;;;;;;19.42;55.71;99884.66;5058169;28;20257;-64
2021/07/31 07:45:44;;;;;;;4.90;4.40;;;;;;;19.85;54.93;99872.31;5057923;28;20177;-64
2021/07/31 07:48:09;;;;;;;8.13;4.60;;;;;;;20.25;53.97;99874.97;5057845;28;20224;-64
2021/07/31 07:50:35;;;;;;;7.27;4.70;;;;;;;20.29;53.67;99869.47;5058405;28;20448;-64
2021/07/31 07:53:00;;;;;;;11.70;4.57;;;;;;;19.69;55.39;99880.00;5057846;28;20453;-64
2021/07/31 07:55:25;;;;;;;5.40;4.90;;;;;;;20.07;53.97;99866.94;5058275;28;20178;-64
2021/07/31 07:57:51;;;;;;;6.93;4.50;;;;;;;20.46;53.59;99865.22;5058132;28;20184;-64
2021/07/31 08:00:16;;;;;;;6.80;4.03;;;;;;;20.05;54.46;99863.47;5057791;28;20165;-64
2021/07/31 08:02:41;;;;;;;5.00;4.50;;;;;;;19.69;55.90;99864.97;5057501;28;20161;-65
2021/07/31 08:05:07;;;;;;;8.23;4.53;;;;;;;19.80;55.32;99872.47;5058055;28;20193;-65
2021/07/31 08:07:32;;;;;;;4.47;4.07;;;;;;;19.18;57.34;99874.97;5057711;28;20227;-66
2021/07/31 08:09:57;;;;;;;6.00;4.60;;;;;;;19.28;57.46;99874.59;5057667;28;20558;-66
2021/07/31 08:12:23;;;;;;;4.67;4.30;;;;;;;19.06;58.42;99888.66;5057878;28;20204;-66
2021/07/31 08:14:50;;;;;;;5.33;4.70;;;;;;;19.32;57.55;99873.56;5057619;28;20177;-66
2021/07/31 08:17:15;;;;;;;6.37;4.53;;;;;;;21.07;53.07;99863.28;5057645;28;20169;-65
2021/07/31 08:19:41;;;;;;;4.70;4.20;;;;;;;20.67;54.21;99871.31;5057918;28;20680;-66
2021/07/31 08:22:06;;;;;;;5.53;4.20;;;;;;;21.62;51.35;99865.94;5057339;28;20224;-66
2021/07/31 08:24:31;;;;;;;8.50;4.57;;;;;;;21.51;51.68;99855.84;5057500;28;20225;-66
2021/07/31 08:26:56;;;;;;;4.70;4.10;;;;;;;22.29;49.51;99849.25;5058104;28;20204;-66
2021/07/31 08:29:22;;;;;;;4.87;4.33;;;;;;;22.98;47.74;99857.91;5057606;28;20276;-66
2021/07/31 08:31:49;;;;;;;6.83;4.13;;;;;;;22.50;48.68;99848.13;5057365;28;20209;-66
2021/07/31 08:34:15;;;;;;;7.40;4.40;;;;;;;21.75;50.69;99858.19;5057881;28;20476;-66
2021/07/31 08:36:40;;;;;;;5.73;4.90;;;;;;;22.16;49.23;99867.59;5057547;28;20416;-66
2021/07/31 08:39:05;;;;;;;6.10;5.20;;;;;;;21.40;51.91;99866.09;5057634;28;20450;-67
2021/07/31 08:41:33;;;;;;;7.57;5.50;;;;;;;20.08;54.76;99879.25;5058658;28;20162;-66
2021/07/31 08:43:58;;;;;;;5.13;4.63;;;;;;;19.88;55.77;99873.94;5061110;28;20177;-66
2021/07/31 08:46:23;;;;;;;5.30;4.90;;;;;;;19.46;56.84;99892.38;5061240;28;20422;-64
2021/07/31 08:48:49;;;;;;;6.10;4.80;;;;;;;19.46;57.20;99880.94;5061621;28;20177;-66
2021/07/31 08:51:16;;;;;;;5.17;4.67;;;;;;;19.58;57.00;99885.72;5060960;28;20288;-64
2021/07/31 08:53:42;;;;;;;5.10;4.60;;;;;;;20.01;55.81;99897.16;5060825;28;20431;-65
2021/07/31 08:56:07;;;;;;;5.43;4.87;;;;;;;20.11;55.16;99875.59;5061503;28;20673;-66
2021/07/31 08:58:32;;;;;;;5.23;4.70;;;;;;;19.91;55.73;99882.59;5060932;28;20276;-66
2021/07/31 09:00:58;;;;;;;5.60;4.60;;;;;;;20.37;54.24;99879.72;5060925;28;20192;-65
2021/07/31 09:03:23;;;;;;;5.27;4.60;;;;;;;19.75;56.03;99870.94;5061140;28;20174;-69
2021/07/31 09:05:49;;;;;;;5.10;4.70;;;;;;;21.18;52.49;99868.97;5060910;28;20594;-69
2021/07/31 09:08:15;;;;;;;5.57;4.87;;;;;;;20.66;53.53;99880.19;5060808;28;20180;-65
2021/07/31 09:10:43;;;;;;;5.73;4.20;;;;;;;20.62;53.55;99874.19;5061059;28;20586;-66
2021/07/31 09:13:13;;;;;;;5.63;4.70;;;;;;;20.85;52.74;99873.16;5060663;28;20412;-65
2021/07/31 09:15:47;;;;;;;5.57;4.87;;;;;;;21.31;51.53;99869.19;5060793;28;20695;-65
2021/07/31 09:18:32;;;;;;;7.83;4.93;;;;;;;21.40;52.05;99879.34;5060682;28;20423;-65
2021/07/31 09:21:03;;;;;;;6.93;5.43;;;;;;;21.52;51.05;99869.94;5060744;28;20662;-66
2021/07/31 09:23:36;;;;;;;6.87;4.80;;;;;;;22.80;47.81;99850.03;5059325;28;20467;-65
2021/07/31 09:26:02;;;;;;;5.10;4.20;;;;;;;23.79;45.46;99844.38;5060329;28;20420;-65
2021/07/31 09:28:28;;;;;;;4.20;3.80;;;;;;;23.75;45.91;99842.84;5060483;28;20423;-65
2021/07/31 09:30:54;;;;;;;5.70;4.13;;;;;;;22.61;47.57;99858.16;5060459;28;20468;-66
2021/07/31 09:33:20;;;;;;;5.60;4.37;;;;;;;21.87;49.69;99872.66;5060626;28;20418;-64
2021/07/31 09:35:46;;;;;;;5.37;4.17;;;;;;;21.18;51.94;99872.44;5060219;28;20169;-65
2021/07/31 09:38:12;;;;;;;6.80;4.63;;;;;;;22.10;49.38;99844.91;5060309;28;20179;-65
2021/07/31 09:40:37;;;;;;;6.70;4.30;;;;;;;22.85;47.43;99842.66;5059743;28;20862;-65
2021/07/31 09:43:16;;;;;;;9.50;4.03;;;;;;;22.41;48.37;99853.94;5060129;28;20177;-66
2021/07/31 09:45:42;;;;;;;7.17;4.47;;;;;;;21.46;50.30;99843.72;5060187;28;20180;-66
2021/07/31 09:48:08;;;;;;;7.57;4.97;;;;;;;21.42;50.69;99844.81;5059947;28;20518;-66
2021/07/31 09:50:47;;;;;;;5.60;4.70;;;;;;;21.97;49.46;99838.53;5059895;28;20472;-64
2021/07/31 09:53:18;;;;;;;6.90;4.83;;;;;;;21.36;50.69;99853.94;5058817;28;20416;-63
2021/07/31 09:55:51;;;;;;;5.13;4.50;;;;;;;21.44;50.42;99837.66;5059735;28;20413;-66
2021/07/31 09:58:19;;;;;;;5.03;4.63;;;;;;;21.22;51.24;99844.03;5059756;28;20430;-68
2021/07/31 10:00:46;;;;;;;6.90;5.10;;;;;;;21.27;51.13;99842.00;5059878;28;20416;-67
2021/07/31 10:03:12;;;;;;;8.63;4.87;;;;;;;20.73;52.86;99844.59;5059558;28;20473;-67
2021/07/31 10:05:39;;;;;;;5.13;4.73;;;;;;;20.62;54.53;99838.88;5059022;28;20871;-65
2021/07/31 10:08:09;;;;;;;5.93;4.70;;;;;;;20.35;55.50;99848.03;5059443;28;20404;-65
2021/07/31 10:10:35;;;;;;;6.00;4.93;;;;;;;20.65;54.33;99852.00;5059625;28;20459;-66
2021/07/31 10:13:01;;;;;;;4.80;4.37;;;;;;;20.17;55.19;99847.09;5059368;28;20416;-66
2021/07/31 10:15:27;;;;;;;9.40;5.00;;;;;;;20.11;55.62;99842.06;5059909;28;20220;-66
2021/07/31 10:17:53;;;;;;;5.50;4.80;;;;;;;20.21;55.24;99847.78;5059012;28;20387;-66
2021/07/31 10:20:23;;;;;;;4.90;4.40;;;;;;;20.61;54.88;99848.63;5059518;28;20543;-66
2021/07/31 10:22:48;;;;;;;5.90;4.50;;;;;;;21.14;52.31;99828.47;5059283;28;20516;-66
2021/07/31 10:25:18;;;;;;;5.67;4.57;;;;;;;21.34;52.02;99839.91;5059366;28;20469;-66
2021/07/31 10:27:45;;;;;;;6.30;4.30;;;;;;;21.37;51.78;99824.69;5058731;28;20411;-65
2021/07/31 10:30:24;;;;;;;4.73;4.33;;;;;;;21.04;52.19;99829.88;5059215;28;20420;-64
2021/07/31 10:32:49;;;;;;;5.70;4.03;;;;;;;20.63;53.11;99820.28;5059064;28;20848;-64
2021/07/31 10:35:22;;;;;;;4.57;4.13;;;;;;;20.53;53.10;99817.19;5059197;28;20416;-64
2021/07/31 10:37:48;;;;;;;10.90;5.13;;;;;;;21.15;51.27;99829.34;5059127;28;20177;-63
2021/07/31 10:40:25;;;;;;;5.30;4.47;;;;;;;20.47;53.79;99841.31;5059291;28;20408;-63
2021/07/31 10:42:50;;;;;;;6.00;4.17;;;;;;;20.31;54.76;99846.47;5059010;28;20406;-64
2021/07/31 10:45:15;;;;;;;6.10;4.70;;;;;;;19.99;56.22;99840.81;5059495;28;20414;-64
2021/07/31 10:47:47;;;;;;;4.93;4.53;;;;;;;19.77;58.73;99864.66;5059037;28;20172;-63
2021/07/31 10:52:51;;;;;;;5.87;4.67;;;;;;;20.21;58.01;99836.34;5058561;28;20400;-65
2021/07/31 10:55:21;;;;;;;5.50;4.37;;;;;;;21.05;56.28;99831.56;5058835;28;20473;-65
2021/07/31 10:58:03;;;;;;;5.43;4.70;;;;;;;21.12;55.49;99830.38;5058818;28;20419;-65
2021/07/31 11:00:37;;;;;;;5.20;4.33;;;;;;;21.03;56.35;99817.56;5058732;28;20423;-65
2021/07/31 11:03:05;;;;;;;7.93;4.77;;;;;;;20.96;54.58;99814.34;5058359;28;20407;-66
2021/07/31 11:06:03;;;;;;;4.47;4.07;;;;;;;21.07;54.10;99812.94;5057401;28;20430;-68
2021/07/31 11:08:34;;;;;;;5.67;4.80;;;;;;;21.21;53.88;99815.78;5046893;28;20696;-68
2021/07/31 11:11:01;;;;;;;9.90;4.77;;;;;;;20.98;54.47;99812.47;5058395;28;20869;-66
2021/07/31 11:13:28;;;;;;;4.97;4.17;;;;;;;21.23;53.40;99815.69;5057465;28;20426;-67
2021/07/31 11:15:56;;;;;;;5.13;4.63;;;;;;;21.17;53.10;99815.06;5058244;28;20419;-66
2021/07/31 11:18:25;;;;;;;4.23;3.83;;;;;;;21.07;54.05;99811.16;5058807;28;20428;-65
2021/07/31 11:20:51;;;;;;;3.80;3.50;;;;;;;20.58;54.43;99813.47;5058473;28;20439;-65
2021/07/31 11:23:18;;;;;;;4.80;4.30;;;;;;;20.68;54.34;99815.66;5057963;28;20474;-65
2021/07/31 11:25:43;;;;;;;4.63;3.87;;;;;;;20.62;54.51;99826.53;5058616;28;20839;-67
2021/07/31 11:28:09;;;;;;;4.30;3.90;;;;;;;20.69;54.51;99814.72;5057841;28;20424;-65